Dalby Airport


Codes: YDAY/DBY
Name: Dalby Airport
City:
Country: Australia
Elevation: 1137 ft.

Photos at Dalby Airport


   Photos courtesy of SpottingLog. You can add your own sightings and photos by signing up for a free trial today.



No photos found.

Weather at Dalby Airport


Time (UTC)DescriptionTempratureWindCloud coverageVisibilityPressureHumidity
17-Jun-2024 06:00Clear Sky14°C20 mph, SW0%10000m1015hPa25%
17-Jun-2024 09:00Clear Sky13°C9 mph, SW0%10000m1016hPa31%
17-Jun-2024 12:00Clear Sky10°C9 mph, SW0%10000m1017hPa44%
17-Jun-2024 15:00Clear Sky6°C7 mph, SW0%10000m1019hPa66%
17-Jun-2024 18:00Clear Sky5°C7 mph, SW0%10000m1018hPa72%
17-Jun-2024 21:00Clear Sky5°C4 mph, SW0%10000m1020hPa79%
18-Jun-2024 00:00Few Clouds11°C7 mph, SW11%10000m1019hPa55%
18-Jun-2024 03:00Clear Sky16°C11 mph, SW0%10000m1016hPa40%
18-Jun-2024 06:00Clear Sky16°C13 mph, SW0%10000m1015hPa37%
18-Jun-2024 09:00Clear Sky11°C9 mph, SW5%10000m1018hPa51%
18-Jun-2024 12:00Clear Sky9°C9 mph, SW6%10000m1019hPa59%
18-Jun-2024 15:00Clear Sky7°C9 mph, SW5%10000m1019hPa65%
18-Jun-2024 18:00Few Clouds6°C4 mph, SW11%10000m1018hPa75%
18-Jun-2024 21:00Clear Sky6°C4 mph, SW3%10000m1020hPa79%
19-Jun-2024 00:00Clear Sky12°C7 mph, SW2%10000m1020hPa51%
19-Jun-2024 03:00Few Clouds17°C9 mph, SW12%10000m1016hPa32%
19-Jun-2024 06:00Scattered Clouds17°C11 mph, SW38%10000m1016hPa33%
19-Jun-2024 09:00Scattered Clouds12°C9 mph, SW34%10000m1018hPa46%
19-Jun-2024 12:00Few Clouds10°C4 mph, SW20%10000m1019hPa53%
19-Jun-2024 15:00Clear Sky9°C2 mph, SE4%10000m1018hPa57%
19-Jun-2024 18:00Clear Sky8°C2 mph, N5%10000m1017hPa57%
19-Jun-2024 21:00Scattered Clouds11°C4 mph, N31%10000m1019hPa51%
20-Jun-2024 00:00Broken Clouds14°C9 mph, NW69%10000m1019hPa44%
20-Jun-2024 03:00Broken Clouds18°C11 mph, NW76%10000m1017hPa37%
20-Jun-2024 06:00Broken Clouds19°C11 mph, W69%10000m1016hPa38%
20-Jun-2024 09:00Clear Sky14°C7 mph, W0%10000m1017hPa51%
20-Jun-2024 12:00Clear Sky13°C7 mph, W4%10000m1018hPa65%
20-Jun-2024 15:00Clear Sky11°C7 mph, W3%10000m1018hPa76%
20-Jun-2024 18:00Scattered Clouds11°C9 mph, SW38%10000m1019hPa62%
20-Jun-2024 21:00Broken Clouds9°C7 mph, SW78%10000m1022hPa66%
21-Jun-2024 00:00Broken Clouds14°C9 mph, SW55%10000m1022hPa44%
21-Jun-2024 03:00Broken Clouds17°C13 mph, SW55%10000m1020hPa31%
21-Jun-2024 06:00Broken Clouds16°C13 mph, SW78%10000m1020hPa34%
21-Jun-2024 09:00Broken Clouds11°C9 mph, SW81%10000m1023hPa49%
21-Jun-2024 12:00Broken Clouds9°C9 mph, SW52%10000m1024hPa56%
21-Jun-2024 15:00Clear Sky7°C7 mph, S2%10000m1024hPa63%
21-Jun-2024 18:00Clear Sky6°C7 mph, S1%10000m1024hPa69%
21-Jun-2024 21:00Clear Sky5°C7 mph, S0%10000m1026hPa73%
22-Jun-2024 00:00Clear Sky12°C11 mph, S0%10000m1025hPa47%
22-Jun-2024 03:00Clear Sky16°C11 mph, S0%10000m1022hPa31%